Terminal Aerodrome Forecast
Issued by NWS Mt. Holly, NJ

Home | Current Version | Previous Version | Text Only | Print | Product List | Glossary On
Versions: 1 2 3 4 5 6 7 8 9 10 11 12 13 14 15 16 17 18 19 20 21 22 23 24
000
FTUS41 KPHI 201148
TAFABE
TAF
KABE 201148Z 2012/2112 VRB03KT P6SM BKN200
      TEMPO 2012/2013 3SM BR
     FM201730 12004KT 4SM -RA SCT030 OVC070
     FM202000 14006KT 3SM -RA BR BKN020 OVC040
     FM202200 12004KT 3SM -DZ OVC015
     FM210100 VRB03KT 5SM BR OVC007
     FM210300 VRB02KT 3/4SM BR OVC002=

USA.gov is the U.S. government's official web portal to all federal, state and local government web resources and services.